Time;durP1;ratioP1;P1;durP2;ratioP2;P2;SDS_P1;SDS_P2;PMS_P1;PMS_P2;Temp;Humidity;BMP_temperature;BMP_pressure;BME280_temperature;BME280_humidity;BME280_pressure;Samples;Min_cycle;Max_cycle;Signal;HPM_P1;HPM_P2
2021/01/04 00:00:11;;;;;;;4.97;1.30;;;18.70;68.00;;;;;;10141871;29;20107;-47
2021/01/04 00:05:23;;;;;;;4.40;1.55;;;18.70;68.00;;;;;;10164122;29;20135;-52
2021/01/04 00:10:34;;;;;;;3.45;1.40;;;18.70;68.00;;;;;;10164388;29;20052;-48
2021/01/04 00:15:44;;;;;;;1.92;1.10;;;18.70;68.10;;;;;;10163956;29;20583;-50
2021/01/04 00:20:52;;;;;;;3.67;1.45;;;18.70;68.00;;;;;;10165083;29;20072;-55
2021/01/04 00:25:57;;;;;;;2.22;1.05;;;18.70;67.90;;;;;;10164296;29;20051;-52
2021/01/04 00:31:03;;;;;;;1.65;1.00;;;18.70;67.90;;;;;;10161719;29;20103;-51
2021/01/04 00:36:10;;;;;;;2.03;1.00;;;18.70;67.80;;;;;;10163981;29;20059;-53
2021/01/04 00:41:19;;;;;;;2.42;1.50;;;18.70;67.80;;;;;;10163462;29;20593;-53
2021/01/04 00:46:29;;;;;;;1.58;1.10;;;18.70;67.60;;;;;;10162309;29;20107;-48
2021/01/04 00:51:44;;;;;;;1.52;1.05;;;18.70;67.50;;;;;;10161908;29;20529;-51
2021/01/04 00:56:57;;;;;;;1.98;1.02;;;18.70;67.40;;;;;;10160989;29;20044;-54
2021/01/04 01:02:20;;;;;;;2.30;1.17;;;18.70;67.50;;;;;;10392160;23;20060;-53
2021/01/04 01:07:43;;;;;;;1.08;0.90;;;18.70;67.40;;;;;;10159572;29;20056;-52
2021/01/04 01:12:53;;;;;;;1.95;1.10;;;18.60;67.40;;;;;;10160313;29;20103;-52
2021/01/04 01:18:16;;;;;;;3.70;1.15;;;18.60;67.40;;;;;;10162378;29;20052;-49
2021/01/04 01:23:18;;;;;;;1.65;1.10;;;18.60;67.10;;;;;;10162926;29;20048;-56
2021/01/04 01:29:02;;;;;;;3.03;1.27;;;18.60;67.50;;;;;;10162273;29;20146;-52
2021/01/04 01:34:29;;;;;;;1.40;1.05;;;18.60;67.40;;;;;;10163587;29;20060;-57
2021/01/04 01:40:09;;;;;;;2.80;1.10;;;18.60;67.20;;;;;;10161394;29;20066;-54
2021/01/04 01:45:18;;;;;;;3.55;1.10;;;18.60;67.10;;;;;;10169099;29;20167;-55
2021/01/04 01:50:32;;;;;;;1.83;1.30;;;18.60;67.10;;;;;;10171490;29;20058;-51
2021/01/04 01:55:41;;;;;;;1.25;0.95;;;18.60;66.90;;;;;;10169182;29;20062;-53
2021/01/04 02:00:46;;;;;;;1.60;1.02;;;18.50;66.90;;;;;;10171767;29;20061;-53
2021/01/04 02:06:24;;;;;;;1.83;1.23;;;18.60;66.90;;;;;;10163049;29;20135;-56
2021/01/04 02:11:35;;;;;;;2.08;1.80;;;18.60;66.70;;;;;;10165840;29;20066;-54
2021/01/04 02:16:46;;;;;;;2.45;1.20;;;18.50;66.60;;;;;;10165221;29;20040;-51
2021/01/04 02:22:33;;;;;;;1.42;0.90;;;18.50;66.60;;;;;;10167451;29;20056;-51
2021/01/04 02:27:41;;;;;;;1.50;1.15;;;18.50;67.20;;;;;;10169501;29;20126;-53
2021/01/04 02:32:43;;;;;;;1.55;1.15;;;18.50;66.60;;;;;;10168987;29;20044;-52
2021/01/04 02:37:44;;;;;;;;;;;18.50;66.70;;;;;;10170402;29;20091;-52
2021/01/04 02:42:50;;;;;;;1.35;1.02;;;18.50;67.60;;;;;;10165207;29;19982;-55
2021/01/04 02:48:05;;;;;;;1.52;1.02;;;18.50;67.10;;;;;;10168340;29;20131;-56
2021/01/04 02:53:34;;;;;;;1.50;1.10;;;18.40;66.60;;;;;;10168234;29;20052;-57
2021/01/04 02:59:00;;;;;;;1.50;1.00;;;18.40;66.40;;;;;;10168959;29;20138;-56
2021/01/04 03:04:02;;;;;;;1.52;1.00;;;18.40;66.10;;;;;;10167815;29;20736;-55
2021/01/04 03:09:06;;;;;;;1.23;0.95;;;18.50;66.40;;;;;;10167368;29;20846;-55
2021/01/04 03:14:22;;;;;;;1.42;1.00;;;18.50;66.30;;;;;;10167130;29;20507;-49
2021/01/04 03:19:28;;;;;;;0.90;0.80;;;18.40;65.80;;;;;;10164701;29;20066;-52
2021/01/04 03:24:30;;;;;;;1.13;1.02;;;18.40;65.80;;;;;;10167603;29;20051;-57
2021/01/04 03:29:32;;;;;;;1.47;1.20;;;18.40;65.90;;;;;;10165158;29;20052;-53
2021/01/04 03:34:33;;;;;;;0.77;0.73;;;18.40;65.90;;;;;;10166303;29;20092;-50
2021/01/04 03:39:35;;;;;;;1.60;1.00;;;18.40;65.80;;;;;;10164992;29;20056;-48
2021/01/04 03:44:37;;;;;;;1.00;0.80;;;18.40;65.80;;;;;;10167584;29;20039;-50
2021/01/04 03:49:38;;;;;;;1.92;0.98;;;18.40;65.60;;;;;;10164370;29;20202;-48
2021/01/04 03:54:42;;;;;;;2.17;1.10;;;18.40;65.60;;;;;;10167572;29;20123;-48
2021/01/04 03:59:44;;;;;;;1.40;1.00;;;18.30;65.20;;;;;;10165068;29;20066;-51
2021/01/04 04:04:45;;;;;;;1.85;1.00;;;18.40;65.30;;;;;;10166231;29;20051;-49
2021/01/04 04:09:47;;;;;;;1.67;0.93;;;18.30;65.30;;;;;;10164068;29;20048;-52
2021/01/04 04:14:50;;;;;;;2.37;0.60;;;18.40;65.20;;;;;;10165832;29;20056;-51
2021/01/04 04:19:51;;;;;;;;;;;18.30;65.10;;;;;;10166275;29;20051;-55
2021/01/04 04:24:52;;;;;;;1.00;0.73;;;18.30;65.90;;;;;;10165206;29;20308;-58
2021/01/04 04:29:54;;;;;;;1.17;0.93;;;18.30;65.70;;;;;;10162505;29;20092;-51
2021/01/04 04:34:56;;;;;;;1.60;1.00;;;18.30;65.40;;;;;;10166262;29;20134;-56
2021/01/04 04:39:57;;;;;;;0.98;0.80;;;18.30;65.20;;;;;;10164324;29;20056;-55
2021/01/04 04:45:03;;;;;;;1.30;0.90;;;18.30;65.10;;;;;;10163673;29;20143;-57
2021/01/04 04:50:17;;;;;;;2.10;1.02;;;18.30;64.80;;;;;;10151379;29;20044;-54
2021/01/04 04:55:35;;;;;;;2.70;0.85;;;18.30;64.60;;;;;;10147365;29;20051;-54
2021/01/04 05:01:00;;;;;;;0.93;0.82;;;18.20;64.50;;;;;;10145463;29;20052;-49
2021/01/04 05:06:12;;;;;;;1.10;0.88;;;18.20;64.40;;;;;;10147515;29;20056;-53
2021/01/04 05:11:18;;;;;;;0.82;0.77;;;18.20;64.40;;;;;;10146844;29;20485;-56
2021/01/04 05:16:35;;;;;;;2.50;1.10;;;18.20;64.60;;;;;;10150810;29;20092;-50
2021/01/04 05:21:56;;;;;;;1.27;0.90;;;18.30;64.30;;;;;;10158078;29;20502;-55
2021/01/04 05:27:32;;;;;;;1.20;0.70;;;18.20;64.20;;;;;;10167099;29;20056;-54
2021/01/04 05:32:57;;;;;;;1.70;0.70;;;18.20;64.20;;;;;;10165338;29;20051;-53
2021/01/04 05:38:06;;;;;;;1.75;1.05;;;18.20;64.20;;;;;;10165954;29;20052;-53
2021/01/04 05:43:19;;;;;;;1.50;0.90;;;18.20;64.20;;;;;;10164670;29;20047;-54
2021/01/04 05:48:43;;;;;;;3.15;0.90;;;18.10;64.20;;;;;;10167062;29;20405;-53
2021/01/04 05:53:45;;;;;;;1.48;0.90;;;18.10;64.20;;;;;;10164954;29;20040;-55
2021/01/04 05:58:46;;;;;;;2.17;1.00;;;18.20;64.50;;;;;;10166312;29;20060;-56
2021/01/04 06:03:56;;;;;;;1.08;0.80;;;18.10;64.20;;;;;;10162793;29;20044;-53
2021/01/04 06:09:07;;;;;;;1.25;0.95;;;18.20;63.90;;;;;;10165871;29;20146;-55
2021/01/04 06:14:08;;;;;;;2.45;1.02;;;18.20;63.80;;;;;;10165615;29;20064;-53
2021/01/04 06:19:14;;;;;;;2.00;1.07;;;18.20;64.10;;;;;;10157352;29;20044;-53
2021/01/04 06:24:34;;;;;;;1.10;0.70;;;18.20;63.90;;;;;;10163513;29;20048;-52
2021/01/04 06:29:40;;;;;;;2.17;1.20;;;18.20;63.70;;;;;;10160539;29;20062;-50
2021/01/04 06:34:50;;;;;;;3.63;0.85;;;18.20;63.70;;;;;;10162368;29;20050;-52
2021/01/04 06:40:00;;;;;;;4.50;0.95;;;18.20;63.60;;;;;;10162060;29;20115;-52
2021/01/04 06:45:15;;;;;;;2.00;1.08;;;18.20;63.50;;;;;;10165390;29;20063;-52
2021/01/04 06:50:26;;;;;;;2.05;1.13;;;18.30;63.40;;;;;;10166151;29;20135;-51
2021/01/04 06:56:05;;;;;;;1.75;0.80;;;18.30;63.40;;;;;;10166554;29;20075;-54
2021/01/04 07:01:29;;;;;;;2.20;0.93;;;18.20;63.30;;;;;;10163406;29;20143;-46
2021/01/04 07:06:55;;;;;;;4.82;1.27;;;18.30;63.30;;;;;;10166309;29;20044;-54
2021/01/04 07:12:02;;;;;;;1.90;1.00;;;18.30;63.20;;;;;;10164603;29;20044;-53
2021/01/04 07:17:15;;;;;;;4.68;1.30;;;18.30;63.30;;;;;;10165180;29;20134;-47
2021/01/04 07:22:27;;;;;;;1.48;1.00;;;18.30;63.00;;;;;;10165631;29;20131;-50
2021/01/04 07:27:41;;;;;;;2.93;1.10;;;18.30;63.00;;;;;;10164687;29;20044;-48
2021/01/04 07:32:54;;;;;;;3.20;0.90;;;18.30;62.90;;;;;;10164300;29;20044;-47
2021/01/04 07:38:07;;;;;;;2.97;1.40;;;18.30;62.70;;;;;;10163184;29;20138;-54
2021/01/04 07:43:37;;;;;;;2.53;1.20;;;18.30;62.60;;;;;;10164272;29;20138;-52
2021/01/04 07:49:10;;;;;;;3.13;0.85;;;18.30;62.60;;;;;;10163540;29;20057;-51
2021/01/04 07:54:46;;;;;;;2.33;1.17;;;18.30;62.50;;;;;;10141608;29;20067;-50
2021/01/04 08:00:13;;;;;;;1.52;0.90;;;18.30;62.60;;;;;;10163478;29;20397;-50
2021/01/04 08:05:43;;;;;;;2.92;0.93;;;18.30;62.40;;;;;;10162207;29;20102;-50
2021/01/04 08:11:24;;;;;;;2.90;1.20;;;18.30;62.40;;;;;;10162252;29;20151;-52
2021/01/04 08:16:28;;;;;;;3.42;1.73;;;18.30;62.30;;;;;;10146306;29;20054;-52
2021/01/04 08:21:37;;;;;;;2.53;0.90;;;18.30;62.30;;;;;;10161801;29;20059;-52
2021/01/04 08:26:57;;;;;;;3.58;0.93;;;18.30;62.10;;;;;;10161959;29;20494;-49
2021/01/04 08:32:09;;;;;;;3.05;1.80;;;18.30;61.90;;;;;;10162847;29;20058;-53
2021/01/04 08:37:13;;;;;;;1.50;0.90;;;18.30;62.00;;;;;;10161089;29;20084;-50
2021/01/04 08:42:33;;;;;;;2.70;0.82;;;18.30;62.60;;;;;;10160036;29;20701;-48
2021/01/04 08:47:38;;;;;;;2.90;0.98;;;18.30;61.70;;;;;;10158014;29;20390;-53
2021/01/04 08:52:49;;;;;;;1.60;1.10;;;18.30;61.80;;;;;;10158638;29;20074;-52
2021/01/04 08:57:52;;;;;;;3.67;0.70;;;18.30;61.50;;;;;;10161155;29;20444;-53
2021/01/04 09:02:54;;;;;;;;;;;18.30;61.60;;;;;;10159856;29;20059;-47
2021/01/04 09:07:57;;;;;;;3.17;1.17;;;18.30;62.20;;;;;;10161504;29;19931;-52
2021/01/04 09:13:11;;;;;;;5.07;1.50;;;18.30;61.90;;;;;;10163024;29;20139;-52
2021/01/04 09:18:31;;;;;;;5.05;1.60;;;18.30;61.50;;;;;;10163243;29;20062;-48
2021/01/04 09:23:35;;;;;;;9.77;1.35;;;18.30;61.30;;;;;;10159293;29;20523;-50
2021/01/04 09:28:41;;;;;;;3.67;1.50;;;18.30;61.30;;;;;;10163292;29;20104;-47
2021/01/04 09:33:47;;;;;;;7.53;1.42;;;18.30;61.20;;;;;;10159915;29;20056;-47
2021/01/04 09:38:49;;;;;;;2.67;1.17;;;18.30;61.00;;;;;;10161807;29;20055;-54
2021/01/04 09:44:03;;;;;;;4.60;1.40;;;18.20;61.00;;;;;;10160652;29;20040;-50
2021/01/04 09:49:07;;;;;;;2.70;1.30;;;18.20;60.70;;;;;;10162732;29;20055;-51
2021/01/04 09:54:15;;;;;;;2.80;1.10;;;18.30;60.90;;;;;;10162143;29;20551;-54
2021/01/04 09:59:23;;;;;;;3.90;1.45;;;18.30;60.70;;;;;;10159651;29;20143;-49
2021/01/04 10:04:27;;;;;;;5.38;1.05;;;18.20;60.40;;;;;;10164239;29;20795;-49
2021/01/04 10:09:32;;;;;;;2.85;1.33;;;18.30;60.40;;;;;;10167089;29;20139;-49
2021/01/04 10:14:35;;;;;;;4.30;1.27;;;18.30;60.20;;;;;;10169206;29;20055;-49
2021/01/04 10:19:38;;;;;;;;;;;18.30;60.10;;;;;;10168202;29;20107;-53
2021/01/04 10:24:42;;;;;;;;;;;18.30;60.60;;;;;;10168222;29;19969;-47
2021/01/04 10:29:47;;;;;;;5.70;1.48;;;18.20;60.80;;;;;;10167331;29;20021;-50
2021/01/04 10:34:50;;;;;;;3.78;1.42;;;18.30;60.40;;;;;;10167815;29;20074;-52
2021/01/04 10:39:58;;;;;;;1.42;1.00;;;18.30;60.00;;;;;;10166371;29;20062;-48
2021/01/04 10:45:09;;;;;;;4.65;0.95;;;18.20;59.20;;;;;;10168547;29;20122;-47
2021/01/04 10:50:15;;;;;;;3.75;1.00;;;18.30;58.80;;;;;;10166401;29;20044;-51
2021/01/04 10:55:20;;;;;;;5.60;1.25;;;18.20;58.40;;;;;;10166790;29;20138;-51
2021/01/04 11:00:26;;;;;;;3.85;1.70;;;18.30;58.30;;;;;;10163869;29;20082;-48
2021/01/04 11:05:38;;;;;;;2.13;1.20;;;18.20;57.90;;;;;;10164103;29;20131;-49
2021/01/04 11:10:40;;;;;;;2.17;1.10;;;18.20;57.60;;;;;;10166467;29;20087;-50
2021/01/04 11:15:42;;;;;;;3.93;1.73;;;18.20;57.60;;;;;;10164208;29;20056;-53
2021/01/04 11:20:43;;;;;;;1.30;1.02;;;18.20;57.50;;;;;;10165913;29;20709;-52
2021/01/04 11:25:45;;;;;;;5.47;1.00;;;18.20;57.40;;;;;;10162039;29;21116;-50
2021/01/04 11:30:47;;;;;;;2.20;1.13;;;18.20;57.30;;;;;;10166313;29;20532;-49
2021/01/04 11:35:49;;;;;;;2.33;1.10;;;18.20;57.70;;;;;;10162815;29;20052;-50
2021/01/04 11:40:50;;;;;;;2.97;1.10;;;18.20;56.90;;;;;;10162537;29;20071;-50
2021/01/04 11:45:52;;;;;;;3.30;0.90;;;18.20;56.80;;;;;;10162422;29;20083;-47
2021/01/04 11:50:53;;;;;;;1.80;1.05;;;18.20;56.70;;;;;;10164297;29;20134;-53
2021/01/04 11:55:54;;;;;;;6.18;1.00;;;18.20;56.70;;;;;;10163409;29;20477;-50
2021/01/04 12:00:57;;;;;;;1.17;0.80;;;18.20;56.60;;;;;;10164001;29;20052;-53
2021/01/04 12:05:58;;;;;;;1.58;0.90;;;18.20;56.60;;;;;;10163659;29;20051;-51
2021/01/04 12:10:59;;;;;;;1.13;0.80;;;18.20;56.60;;;;;;10165843;29;20056;-51
2021/01/04 12:16:02;;;;;;;1.88;0.70;;;18.20;56.50;;;;;;10164585;29;20152;-52
2021/01/04 12:21:03;;;;;;;1.25;0.80;;;18.20;56.50;;;;;;10161858;29;20472;-54
2021/01/04 12:26:04;;;;;;;3.33;0.90;;;18.10;56.40;;;;;;10163641;29;20040;-53
2021/01/04 12:31:06;;;;;;;2.47;0.70;;;18.10;56.40;;;;;;10161102;29;20079;-54
2021/01/04 12:36:15;;;;;;;1.20;0.57;;;18.00;56.40;;;;;;10163008;29;20058;-49
2021/01/04 12:41:17;;;;;;;1.60;0.50;;;18.00;56.40;;;;;;10155558;29;20087;-52
2021/01/04 12:46:19;;;;;;;2.80;1.17;;;18.00;56.60;;;;;;10163318;29;20054;-50
2021/01/04 12:51:20;;;;;;;6.32;1.73;;;17.90;56.60;;;;;;10158409;29;20048;-50
2021/01/04 12:56:22;;;;;;;7.05;1.80;;;17.90;56.70;;;;;;10145918;29;20514;-50
2021/01/04 13:01:24;;;;;;;10.27;2.50;;;17.90;56.70;;;;;;10146344;29;20060;-49
2021/01/04 13:06:27;;;;;;;5.55;1.77;;;17.80;56.70;;;;;;10161830;29;20848;-53
2021/01/04 13:11:28;;;;;;;9.27;2.25;;;17.80;56.90;;;;;;10161326;29;20059;-50
2021/01/04 13:16:35;;;;;;;6.45;2.15;;;17.80;56.90;;;;;;10162058;29;20040;-52
2021/01/04 13:21:37;;;;;;;5.85;2.08;;;17.80;56.70;;;;;;10163026;29;20075;-51
2021/01/04 13:26:40;;;;;;;8.65;2.47;;;17.90;56.70;;;;;;10162765;29;20457;-52
2021/01/04 13:31:42;;;;;;;;;;;17.90;56.60;;;;;;10161904;29;20062;-51
2021/01/04 13:36:46;;;;;;;9.88;2.50;;;17.90;56.70;;;;;;10159711;29;19942;-51
2021/01/04 13:41:50;;;;;;;7.00;2.22;;;17.90;56.50;;;;;;10168012;29;20051;-53
2021/01/04 13:46:57;;;;;;;7.78;2.47;;;18.00;56.50;;;;;;10168782;29;20130;-52
2021/01/04 13:51:59;;;;;;;10.05;2.15;;;18.00;56.40;;;;;;10168549;29;20055;-51
2021/01/04 13:57:00;;;;;;;6.80;2.20;;;18.00;56.40;;;;;;10168753;29;20147;-51
2021/01/04 14:02:04;;;;;;;5.43;1.95;;;18.10;56.30;;;;;;10170053;29;20154;-49
2021/01/04 14:07:07;;;;;;;4.93;2.58;;;18.10;56.20;;;;;;10169137;29;20058;-55
2021/01/04 14:12:09;;;;;;;;;;;18.10;56.20;;;;;;10169997;29;20076;-52
2021/01/04 14:17:11;;;;;;;6.88;1.73;;;18.10;56.40;;;;;;10168715;29;19923;-47
2021/01/04 14:22:12;;;;;;;3.53;1.52;;;18.10;56.30;;;;;;10165553;29;20132;-53
2021/01/04 14:27:14;;;;;;;6.53;1.95;;;18.20;56.30;;;;;;10156348;29;21225;-55
2021/01/04 14:32:16;;;;;;;2.70;1.50;;;18.20;56.20;;;;;;10158374;29;20412;-51
2021/01/04 14:37:19;;;;;;;5.82;1.33;;;18.20;56.20;;;;;;10165065;29;20567;-48
2021/01/04 14:42:22;;;;;;;4.72;1.30;;;18.20;56.10;;;;;;10167645;29;20071;-52
2021/01/04 14:47:26;;;;;;;3.38;1.23;;;18.30;56.10;;;;;;10166046;29;20489;-54
2021/01/04 14:52:27;;;;;;;9.85;1.42;;;18.30;56.00;;;;;;10164970;29;20103;-48
2021/01/04 14:57:28;;;;;;;5.93;1.50;;;18.30;56.10;;;;;;10166715;29;20147;-53
2021/01/04 15:02:31;;;;;;;7.75;1.52;;;18.30;56.00;;;;;;10167313;29;20154;-54
2021/01/04 15:07:32;;;;;;;3.55;1.63;;;18.30;56.60;;;;;;10167219;29;20136;-52
2021/01/04 15:12:34;;;;;;;5.70;1.45;;;18.30;56.10;;;;;;10164423;29;20471;-51
2021/01/04 15:17:36;;;;;;;3.35;1.92;;;18.30;56.10;;;;;;10167642;29;20831;-50
2021/01/04 15:22:37;;;;;;;4.53;1.40;;;18.40;56.20;;;;;;10165096;29;20071;-51
2021/01/04 15:27:38;;;;;;;5.97;1.27;;;18.40;56.20;;;;;;10167524;29;20051;-50
2021/01/04 15:32:41;;;;;;;3.10;1.05;;;18.40;56.20;;;;;;10165799;29;20044;-52
2021/01/04 15:37:42;;;;;;;4.47;1.25;;;18.40;56.30;;;;;;10164179;29;20040;-51
2021/01/04 15:42:45;;;;;;;3.63;1.05;;;18.50;56.30;;;;;;10164075;29;20197;-53
2021/01/04 15:47:47;;;;;;;4.63;1.27;;;18.40;56.40;;;;;;10166057;29;20132;-51
2021/01/04 15:52:50;;;;;;;5.85;1.17;;;18.50;56.40;;;;;;10161119;29;20143;-51
2021/01/04 15:57:51;;;;;;;3.85;1.10;;;18.50;56.40;;;;;;10164334;29;20048;-54
2021/01/04 16:02:53;;;;;;;11.40;1.65;;;18.50;56.40;;;;;;10164238;29;20632;-48
2021/01/04 16:07:55;;;;;;;2.47;1.05;;;18.50;56.40;;;;;;10162787;29;20044;-52
2021/01/04 16:12:56;;;;;;;3.75;1.30;;;18.50;56.40;;;;;;10163968;29;20497;-53
2021/01/04 16:17:58;;;;;;;3.72;1.38;;;18.50;56.40;;;;;;10163478;29;20075;-47
2021/01/04 16:23:00;;;;;;;20.88;3.92;;;18.50;56.40;;;;;;10163985;29;20051;-50
2021/01/04 16:28:02;;;;;;;31.02;7.40;;;18.60;56.50;;;;;;10163876;29;20083;-50
2021/01/04 16:33:05;;;;;;;37.65;8.85;;;18.60;56.40;;;;;;10162848;29;20063;-50
2021/01/04 16:38:06;;;;;;;;;;;18.60;56.40;;;;;;10163238;29;20068;-52
2021/01/04 16:43:07;;;;;;;39.80;9.80;;;18.60;56.50;;;;;;10164586;29;19927;-52
2021/01/04 16:48:10;;;;;;;36.27;10.17;;;18.70;56.50;;;;;;10163237;29;20502;-52
2021/01/04 16:53:12;;;;;;;33.08;9.38;;;18.70;56.50;;;;;;10163065;29;20040;-50
2021/01/04 16:58:13;;;;;;;32.50;8.30;;;18.70;56.40;;;;;;10162116;29;20063;-54
2021/01/04 17:03:15;;;;;;;31.42;7.22;;;18.70;56.30;;;;;;10164083;29;20048;-53
2021/01/04 17:08:17;;;;;;;23.60;6.22;;;18.70;56.20;;;;;;10162770;29;20048;-52
2021/01/04 17:13:18;;;;;;;23.23;6.03;;;18.70;56.10;;;;;;10166749;29;20460;-50
2021/01/04 17:18:20;;;;;;;18.85;5.03;;;18.70;56.00;;;;;;10168972;29;20052;-47
2021/01/04 17:23:21;;;;;;;17.77;4.95;;;18.70;55.80;;;;;;10171153;29;20060;-47
2021/01/04 17:28:23;;;;;;;14.70;3.60;;;18.80;55.80;;;;;;10168609;29;21645;-49
2021/01/04 17:33:25;;;;;;;18.77;3.22;;;18.70;55.60;;;;;;10167305;29;20056;-50
2021/01/04 17:38:26;;;;;;;21.77;5.05;;;18.80;55.50;;;;;;10168369;29;20062;-51
2021/01/04 17:43:27;;;;;;;38.05;4.50;;;18.80;55.40;;;;;;10166762;29;20143;-48
2021/01/04 17:48:30;;;;;;;16.55;3.72;;;18.80;55.10;;;;;;10165698;29;20139;-49
2021/01/04 17:53:31;;;;;;;19.50;3.03;;;18.70;54.80;;;;;;10170038;29;20139;-48
2021/01/04 17:58:32;;;;;;;17.02;3.38;;;18.80;54.70;;;;;;10169391;29;20115;-47
2021/01/04 18:03:34;;;;;;;15.30;2.42;;;18.80;54.40;;;;;;10169338;29;20083;-49
2021/01/04 18:08:36;;;;;;;13.90;3.20;;;18.80;54.10;;;;;;10169955;29;20150;-54
2021/01/04 18:13:37;;;;;;;6.88;1.73;;;18.80;54.00;;;;;;10161971;29;20068;-53
2021/01/04 18:18:39;;;;;;;7.72;2.08;;;18.80;53.70;;;;;;10168914;29;20143;-49
2021/01/04 18:23:41;;;;;;;6.65;1.80;;;18.80;53.50;;;;;;10165211;29;20092;-53
2021/01/04 18:28:42;;;;;;;2.95;1.20;;;18.80;53.50;;;;;;10168842;29;20056;-50
2021/01/04 18:33:44;;;;;;;7.00;1.35;;;18.70;53.40;;;;;;10164217;29;20131;-52
2021/01/04 18:38:46;;;;;;;3.92;1.25;;;18.70;53.40;;;;;;10166569;29;20143;-52
2021/01/04 18:43:48;;;;;;;6.55;1.30;;;18.70;53.40;;;;;;10167078;29;20527;-48
2021/01/04 18:48:50;;;;;;;6.63;1.47;;;18.70;53.40;;;;;;10166019;29;20409;-48
2021/01/04 18:53:51;;;;;;;4.85;1.50;;;18.70;53.50;;;;;;10165918;29;20862;-51
2021/01/04 18:58:53;;;;;;;5.65;1.00;;;18.70;53.50;;;;;;10167132;29;20059;-53
2021/01/04 19:03:55;;;;;;;3.60;0.98;;;18.70;53.50;;;;;;10163783;29;20143;-52
2021/01/04 19:08:57;;;;;;;;;;;18.80;53.60;;;;;;10164488;29;20131;-51
2021/01/04 19:13:59;;;;;;;5.93;1.67;;;18.80;53.70;;;;;;10164167;29;20013;-50
2021/01/04 19:19:01;;;;;;;5.93;1.60;;;18.80;53.70;;;;;;10167664;29;20088;-47
2021/01/04 19:24:04;;;;;;;1.85;0.77;;;18.80;53.70;;;;;;10167114;29;20052;-49
2021/01/04 19:29:07;;;;;;;3.88;1.17;;;18.80;53.70;;;;;;10164274;29;20559;-51
2021/01/04 19:34:11;;;;;;;5.22;1.40;;;18.80;53.80;;;;;;10167255;29;20140;-53
2021/01/04 19:39:14;;;;;;;7.38;1.90;;;18.80;53.70;;;;;;10159367;29;20056;-53
2021/01/04 19:44:15;;;;;;;5.63;2.30;;;18.80;53.80;;;;;;10160973;29;20473;-50
2021/01/04 19:49:18;;;;;;;7.83;1.97;;;18.90;53.80;;;;;;10148933;29;20115;-55
2021/01/04 19:54:19;;;;;;;;;;;18.90;53.90;;;;;;10163675;29;21996;-48
2021/01/04 19:59:23;;;;;;;6.70;2.72;;;18.90;54.00;;;;;;10159935;29;20026;-48
2021/01/04 20:04:27;;;;;;;8.57;2.50;;;18.90;54.00;;;;;;10161993;29;20075;-52
2021/01/04 20:09:29;;;;;;;8.63;2.08;;;18.90;54.00;;;;;;10161575;29;20064;-54
2021/01/04 20:14:30;;;;;;;6.43;1.90;;;18.90;54.10;;;;;;10156952;29;20059;-52
2021/01/04 20:19:32;;;;;;;8.02;2.30;;;18.90;54.10;;;;;;10161312;29;20503;-51
2021/01/04 20:24:34;;;;;;;6.72;2.13;;;18.90;54.00;;;;;;10160090;29;20063;-49
2021/01/04 20:29:38;;;;;;;6.90;2.30;;;18.80;54.00;;;;;;10160564;29;20628;-52
2021/01/04 20:34:40;;;;;;;7.93;2.38;;;18.80;54.00;;;;;;10158911;29;20048;-52
2021/01/04 20:39:42;;;;;;;7.57;3.08;;;18.80;54.00;;;;;;10160302;29;20182;-50
2021/01/04 20:44:47;;;;;;;7.32;2.35;;;18.80;54.00;;;;;;10159349;29;20082;-53
2021/01/04 20:49:49;;;;;;;8.43;2.80;;;18.80;54.00;;;;;;10158691;29;20083;-50
2021/01/04 20:54:51;;;;;;;6.75;2.72;;;18.70;54.00;;;;;;10417451;23;20107;-52
2021/01/04 20:59:53;;;;;;;6.05;2.50;;;18.70;54.00;;;;;;10197579;29;20055;-50
2021/01/04 21:04:55;;;;;;;6.73;2.27;;;18.70;54.00;;;;;;10198023;29;20055;-50
2021/01/04 21:09:57;;;;;;;6.03;2.70;;;18.70;54.00;;;;;;10197718;29;20138;-53
2021/01/04 21:14:58;;;;;;;7.27;2.80;;;18.70;54.00;;;;;;10198400;29;20071;-49
2021/01/04 21:20:01;;;;;;;9.30;3.28;;;18.70;54.00;;;;;;10199687;29;20527;-48
2021/01/04 21:25:04;;;;;;;9.32;3.05;;;18.60;53.90;;;;;;10194066;29;20155;-50
2021/01/04 21:30:06;;;;;;;9.48;4.07;;;18.60;54.00;;;;;;10200679;29;20075;-53
2021/01/04 21:35:10;;;;;;;6.75;3.28;;;18.60;54.00;;;;;;10198073;29;20046;-51
2021/01/04 21:40:11;;;;;;;6.30;2.70;;;18.60;54.00;;;;;;10197443;29;20051;-53
2021/01/04 21:45:14;;;;;;;6.30;2.67;;;18.60;54.00;;;;;;10194355;29;20039;-52
2021/01/04 21:50:20;;;;;;;4.28;2.15;;;18.60;54.00;;;;;;10203124;29;20079;-53
2021/01/04 21:55:21;;;;;;;4.13;2.90;;;18.50;53.90;;;;;;10203074;29;20048;-50
2021/01/04 22:00:23;;;;;;;6.80;2.00;;;18.50;53.90;;;;;;10206692;29;20054;-52
2021/01/04 22:05:25;;;;;;;6.60;1.75;;;18.60;54.00;;;;;;10209076;29;20562;-48
2021/01/04 22:10:26;;;;;;;6.07;1.88;;;18.60;53.90;;;;;;10210394;29;20243;-48
2021/01/04 22:15:28;;;;;;;7.10;1.40;;;18.60;54.00;;;;;;10208015;29;20090;-55
2021/01/04 22:20:30;;;;;;;8.30;1.40;;;18.60;54.00;;;;;;10209314;29;20151;-53
2021/01/04 22:25:31;;;;;;;3.08;1.55;;;18.50;53.90;;;;;;10208554;29;20052;-50
2021/01/04 22:30:32;;;;;;;2.58;1.33;;;18.60;54.00;;;;;;10208214;29;20513;-52
2021/01/04 22:35:35;;;;;;;2.30;1.13;;;18.50;53.90;;;;;;10209375;29;20051;-53
2021/01/04 22:40:37;;;;;;;5.22;2.22;;;18.50;53.90;;;;;;10206073;29;20377;-51
2021/01/04 22:45:38;;;;;;;3.75;1.00;;;18.50;53.90;;;;;;10191371;29;20059;-53
2021/01/04 22:50:41;;;;;;;5.15;1.42;;;18.50;53.90;;;;;;10206703;29;20054;-48
2021/01/04 22:55:42;;;;;;;;;;;18.50;53.90;;;;;;10207704;29;20185;-54
2021/01/04 23:00:43;;;;;;;5.65;1.40;;;18.50;54.00;;;;;;10207150;29;20034;-54
2021/01/04 23:05:46;;;;;;;3.03;1.42;;;18.50;54.00;;;;;;10206201;29;20134;-54
2021/01/04 23:10:47;;;;;;;3.50;1.00;;;18.50;54.00;;;;;;10206504;29;20043;-53
2021/01/04 23:15:49;;;;;;;5.07;0.93;;;18.50;54.00;;;;;;10205638;29;20134;-53
2021/01/04 23:20:52;;;;;;;6.90;1.10;;;18.50;53.90;;;;;;10205666;29;20555;-51
2021/01/04 23:25:53;;;;;;;1.58;0.90;;;18.50;54.00;;;;;;10205597;29;20051;-48
2021/01/04 23:30:54;;;;;;;4.22;0.85;;;18.50;53.90;;;;;;10206185;29;20059;-50
2021/01/04 23:35:57;;;;;;;1.58;0.88;;;18.50;53.90;;;;;;10205348;29;20465;-53
2021/01/04 23:40:58;;;;;;;1.80;0.88;;;18.50;53.90;;;;;;10201764;29;20474;-52
2021/01/04 23:46:00;;;;;;;1.65;0.82;;;18.40;53.90;;;;;;10200821;29;20396;-54
2021/01/04 23:51:03;;;;;;;1.10;0.63;;;18.50;53.90;;;;;;10201753;29;20135;-53
2021/01/04 23:56:05;;;;;;;2.20;0.77;;;18.50;53.90;;;;;;10204144;29;20071;-51
